createdAt,value
2019-06-20T00:00:04.889Z,5.97
2019-06-20T00:00:51.199Z,5.90
2019-06-20T00:01:37.519Z,5.13
2019-06-20T00:02:23.482Z,5.87
2019-06-20T00:03:09.463Z,5.27
2019-06-20T00:03:56.551Z,5.77
2019-06-20T00:04:42.559Z,6.27
2019-06-20T00:05:31.611Z,5.93
2019-06-20T00:06:17.610Z,5.07
2019-06-20T00:07:03.967Z,4.90
2019-06-20T00:07:50.419Z,5.37
2019-06-20T00:08:36.372Z,4.57
2019-06-20T00:09:22.775Z,4.87
2019-06-20T00:10:08.891Z,4.63
2019-06-20T00:10:55.007Z,5.60
2019-06-20T00:11:41.809Z,4.40
2019-06-20T00:12:28.283Z,5.00
2019-06-20T00:13:14.515Z,4.90
2019-06-20T00:14:00.366Z,5.50
2019-06-20T00:14:46.746Z,5.50
2019-06-20T00:15:33.736Z,5.60
2019-06-20T00:16:19.880Z,6.00
2019-06-20T00:17:06.110Z,6.47
2019-06-20T00:17:52.379Z,5.57
2019-06-20T00:18:38.788Z,6.60
2019-06-20T00:19:25.058Z,5.70
2019-06-20T00:20:12.024Z,4.93
2019-06-20T00:20:58.442Z,4.97
2019-06-20T00:21:44.773Z,4.93
2019-06-20T00:22:31.161Z,5.50
2019-06-20T00:23:17.402Z,6.00
2019-06-20T00:24:03.488Z,5.57
2019-06-20T00:24:49.711Z,5.73
2019-06-20T00:25:36.131Z,5.17
2019-06-20T00:26:22.357Z,5.87
2019-06-20T00:27:08.674Z,5.83
2019-06-20T00:27:55.051Z,5.27
2019-06-20T00:28:41.389Z,5.27
2019-06-20T00:29:27.216Z,4.70
2019-06-20T00:30:14.364Z,4.77
2019-06-20T00:31:00.708Z,4.57
2019-06-20T00:31:46.837Z,5.17
2019-06-20T00:32:33.437Z,4.30
2019-06-20T00:33:19.386Z,4.90
2019-06-20T00:34:06.519Z,4.40
2019-06-20T00:34:52.916Z,4.77
2019-06-20T00:35:38.904Z,4.50
2019-06-20T00:36:26.134Z,4.13
2019-06-20T00:37:12.192Z,4.37
2019-06-20T00:37:58.520Z,4.50
2019-06-20T00:38:45.508Z,4.87
2019-06-20T00:39:32.125Z,4.00
2019-06-20T00:40:18.447Z,4.00
2019-06-20T00:41:04.542Z,4.20
2019-06-20T00:41:50.891Z,4.00
2019-06-20T00:42:36.792Z,3.73
2019-06-20T00:43:23.036Z,3.97
2019-06-20T00:44:08.821Z,3.73
2019-06-20T00:44:54.764Z,3.93
2019-06-20T00:45:41.207Z,3.23
2019-06-20T00:46:27.342Z,3.40
2019-06-20T00:47:13.219Z,3.20
2019-06-20T00:47:59.091Z,3.70
2019-06-20T00:48:45.020Z,3.40
2019-06-20T00:49:31.636Z,3.60
2019-06-20T00:50:17.533Z,3.87
2019-06-20T00:51:03.499Z,2.97
2019-06-20T00:51:49.536Z,3.33
2019-06-20T00:52:35.906Z,3.40
2019-06-20T00:53:22.110Z,3.10
2019-06-20T00:54:08.628Z,3.03
2019-06-20T00:54:56.237Z,3.00
2019-06-20T00:55:42.482Z,3.40
2019-06-20T00:56:28.496Z,3.10
2019-06-20T00:57:14.580Z,3.20
2019-06-20T00:58:00.644Z,3.60
2019-06-20T00:58:47.581Z,3.07
2019-06-20T00:59:33.843Z,3.23
2019-06-20T01:00:20.544Z,3.20
2019-06-20T01:01:25.820Z,3.40
2019-06-20T01:02:11.883Z,3.27
2019-06-20T01:02:57.927Z,3.10
2019-06-20T01:03:43.875Z,3.00
2019-06-20T01:04:29.743Z,3.07
2019-06-20T01:05:15.535Z,3.27
2019-06-20T01:06:01.888Z,3.33
2019-06-20T01:06:48.284Z,3.80
2019-06-20T01:07:34.466Z,3.20
2019-06-20T01:08:20.869Z,3.20
2019-06-20T01:09:07.698Z,3.33
2019-06-20T01:09:54.315Z,3.50
2019-06-20T01:10:40.474Z,3.10
2019-06-20T01:11:26.415Z,3.33
2019-06-20T01:12:12.698Z,3.40
2019-06-20T01:12:58.836Z,3.20
2019-06-20T01:13:44.600Z,3.03
2019-06-20T01:14:30.944Z,2.85
2019-06-20T01:15:17.217Z,3.80
2019-06-20T01:16:04.972Z,3.40
2019-06-20T01:16:51.190Z,3.20
2019-06-20T01:17:37.162Z,3.20
2019-06-20T01:18:23.318Z,3.80
2019-06-20T01:19:09.472Z,3.53
2019-06-20T01:19:58.357Z,3.43
2019-06-20T01:20:44.780Z,3.80
2019-06-20T01:21:30.851Z,4.20
2019-06-20T01:22:16.868Z,4.00
2019-06-20T01:23:03.337Z,3.57
2019-06-20T01:23:50.602Z,3.73
2019-06-20T01:24:36.725Z,3.87
2019-06-20T01:25:35.857Z,3.80
2019-06-20T01:26:22.532Z,3.97
2019-06-20T01:27:08.889Z,4.30
2019-06-20T01:27:55.065Z,4.40
2019-06-20T01:28:41.327Z,4.37
2019-06-20T01:29:27.550Z,4.40
2019-06-20T01:30:13.748Z,4.43
2019-06-20T01:30:59.500Z,4.37
2019-06-20T01:31:45.477Z,4.30
2019-06-20T01:32:31.267Z,4.00
2019-06-20T01:33:17.220Z,4.10
2019-06-20T01:34:03.510Z,4.23
2019-06-20T01:34:51.189Z,4.50
2019-06-20T01:35:37.306Z,4.70
2019-06-20T01:36:23.224Z,4.80
2019-06-20T01:37:09.599Z,4.80
2019-06-20T01:37:55.595Z,4.30
2019-06-20T01:38:41.977Z,5.27
2019-06-20T01:39:28.083Z,5.73
2019-06-20T01:40:14.655Z,6.33
2019-06-20T01:41:01.203Z,5.60
2019-06-20T01:41:47.477Z,5.73
2019-06-20T01:42:34.771Z,6.27
2019-06-20T01:43:21.014Z,5.70
2019-06-20T01:44:07.672Z,5.97
2019-06-20T01:44:53.860Z,6.00
2019-06-20T01:45:39.997Z,6.05
2019-06-20T01:46:26.466Z,6.40
2019-06-20T01:47:12.502Z,6.10
2019-06-20T01:47:58.640Z,6.27
2019-06-20T01:48:44.810Z,6.07
2019-06-20T01:49:31.099Z,6.80
2019-06-20T01:50:17.475Z,7.20
2019-06-20T01:51:03.544Z,7.57
2019-06-20T01:51:49.724Z,7.40
2019-06-20T01:52:35.744Z,7.50
2019-06-20T01:53:21.875Z,7.50
2019-06-20T01:54:08.388Z,7.57
2019-06-20T01:54:54.638Z,7.33
2019-06-20T01:55:41.616Z,8.63
2019-06-20T01:56:27.496Z,8.77
2019-06-20T01:57:13.595Z,8.23
2019-06-20T01:57:59.533Z,8.37
2019-06-20T01:58:47.186Z,8.07
2019-06-20T01:59:33.797Z,8.60
2019-06-20T02:00:32.819Z,8.17
2019-06-20T02:01:20.111Z,8.07
2019-06-20T02:02:07.750Z,8.50
2019-06-20T02:02:54.267Z,8.77
2019-06-20T02:03:40.800Z,8.90
2019-06-20T02:04:26.856Z,9.50
2019-06-20T02:05:12.844Z,9.27
2019-06-20T02:05:58.898Z,9.40
2019-06-20T02:06:45.102Z,9.13
2019-06-20T02:07:31.047Z,10.13
2019-06-20T02:08:16.937Z,9.60
2019-06-20T02:09:06.902Z,9.33
2019-06-20T02:09:52.923Z,9.70
2019-06-20T02:10:38.834Z,10.90
2019-06-20T02:11:26.159Z,10.97
2019-06-20T02:12:12.320Z,10.40
2019-06-20T02:12:58.117Z,10.43
2019-06-20T02:13:44.043Z,11.70
2019-06-20T02:14:30.416Z,10.90
2019-06-20T02:15:17.277Z,11.10
2019-06-20T02:16:03.231Z,11.57
2019-06-20T02:16:49.498Z,11.00
2019-06-20T02:17:35.413Z,11.90
2019-06-20T02:18:21.481Z,11.00
2019-06-20T02:19:07.747Z,11.20
2019-06-20T02:19:53.708Z,12.93
2019-06-20T02:20:46.382Z,12.37
2019-06-20T02:21:32.366Z,12.30
2019-06-20T02:22:18.278Z,11.83
2019-06-20T02:23:05.215Z,13.07
2019-06-20T02:23:52.622Z,12.30
2019-06-20T02:24:39.004Z,12.63
2019-06-20T02:25:25.388Z,12.77
2019-06-20T02:26:11.927Z,12.47
2019-06-20T02:26:58.056Z,12.30
2019-06-20T02:27:44.349Z,12.60
2019-06-20T02:28:30.722Z,12.37
2019-06-20T02:29:17.035Z,13.80
2019-06-20T02:30:04.364Z,13.63
2019-06-20T02:30:50.326Z,12.67
2019-06-20T02:31:36.403Z,13.50
2019-06-20T02:32:22.131Z,13.57
2019-06-20T02:33:08.771Z,13.67
2019-06-20T02:33:55.068Z,13.93
2019-06-20T02:34:41.078Z,14.37
2019-06-20T02:35:27.499Z,15.17
2019-06-20T02:36:14.153Z,14.43
2019-06-20T02:37:01.246Z,16.00
2019-06-20T02:37:47.866Z,15.07
2019-06-20T02:38:34.410Z,15.70
2019-06-20T02:39:21.067Z,15.80
2019-06-20T02:40:07.476Z,16.73
2019-06-20T02:40:54.696Z,16.33
2019-06-20T02:41:41.306Z,16.33
2019-06-20T02:42:27.515Z,15.53
2019-06-20T02:43:13.517Z,15.70
2019-06-20T02:44:00.937Z,15.70
2019-06-20T02:44:48.913Z,15.33
2019-06-20T02:45:35.517Z,16.97
2019-06-20T02:46:21.866Z,15.57
2019-06-20T02:47:09.146Z,14.77
2019-06-20T02:47:55.584Z,15.97
2019-06-20T02:48:41.431Z,15.83
2019-06-20T02:49:27.942Z,15.90
2019-06-20T02:50:15.800Z,16.43
2019-06-20T02:51:02.543Z,16.50
2019-06-20T02:51:50.344Z,16.77
2019-06-20T02:52:36.669Z,14.63
2019-06-20T02:53:22.700Z,15.67
2019-06-20T02:54:08.863Z,16.00
2019-06-20T02:54:54.647Z,15.23
2019-06-20T02:55:40.552Z,16.10
2019-06-20T02:56:26.859Z,15.00
2019-06-20T02:57:13.167Z,15.50
2019-06-20T02:57:59.107Z,15.80
2019-06-20T02:58:45.023Z,14.77
2019-06-20T02:59:30.883Z,15.60
2019-06-20T03:00:27.632Z,14.17
2019-06-20T03:01:13.588Z,14.30
2019-06-20T03:02:00.158Z,15.63
2019-06-20T03:02:46.455Z,16.30
2019-06-20T03:03:32.445Z,15.15
2019-06-20T03:04:18.887Z,14.70
2019-06-20T03:05:07.040Z,15.23
2019-06-20T03:05:55.051Z,15.80
2019-06-20T03:06:41.165Z,16.53
2019-06-20T03:07:27.609Z,15.20
2019-06-20T03:08:14.032Z,15.63
2019-06-20T03:08:59.978Z,16.50
2019-06-20T03:09:45.760Z,17.03
2019-06-20T03:10:31.624Z,16.40
2019-06-20T03:11:17.674Z,14.87
2019-06-20T03:12:03.945Z,17.10
2019-06-20T03:12:49.770Z,16.63
2019-06-20T03:13:36.068Z,16.13
2019-06-20T03:14:22.020Z,15.40
2019-06-20T03:15:07.888Z,16.47
2019-06-20T03:15:53.747Z,15.27
2019-06-20T03:16:39.648Z,16.90
2019-06-20T03:17:25.603Z,15.73
2019-06-20T03:18:12.045Z,16.60
2019-06-20T03:18:58.473Z,15.50
2019-06-20T03:19:45.696Z,16.53
2019-06-20T03:20:31.987Z,16.07
2019-06-20T03:21:17.910Z,17.03
2019-06-20T03:22:03.875Z,16.10
2019-06-20T03:22:49.907Z,16.50
2019-06-20T03:23:35.917Z,15.93
2019-06-20T03:24:21.648Z,16.87
2019-06-20T03:25:07.619Z,17.10
2019-06-20T03:25:53.861Z,17.77
2019-06-20T03:26:39.859Z,18.53
2019-06-20T03:27:26.107Z,18.53
2019-06-20T03:28:11.999Z,17.03
2019-06-20T03:28:58.284Z,17.10
2019-06-20T03:29:44.200Z,17.30
2019-06-20T03:30:30.013Z,18.63
2019-06-20T03:31:15.854Z,17.40
2019-06-20T03:32:01.653Z,17.00
2019-06-20T03:32:49.044Z,16.93
2019-06-20T03:33:35.333Z,16.23
2019-06-20T03:34:21.271Z,17.30
2019-06-20T03:35:07.391Z,17.47
2019-06-20T03:35:53.642Z,17.03
2019-06-20T03:36:39.559Z,17.03
2019-06-20T03:37:25.716Z,17.53
2019-06-20T03:38:12.225Z,19.70
2019-06-20T03:38:58.763Z,16.53
2019-06-20T03:39:45.916Z,17.77
2019-06-20T03:40:34.035Z,17.27
2019-06-20T03:41:20.427Z,17.57
2019-06-20T03:42:06.563Z,17.67
2019-06-20T03:42:53.163Z,18.07
2019-06-20T03:43:40.666Z,18.27
2019-06-20T03:44:27.072Z,18.90
2019-06-20T03:45:13.502Z,19.37
2019-06-20T03:46:00.070Z,19.17
2019-06-20T03:46:46.144Z,18.00
2019-06-20T03:47:32.580Z,18.07
2019-06-20T03:48:18.487Z,18.30
2019-06-20T03:49:05.376Z,18.90
2019-06-20T03:49:51.649Z,18.65
2019-06-20T03:50:37.619Z,18.07
2019-06-20T03:51:24.887Z,19.40
2019-06-20T03:52:11.267Z,19.40
2019-06-20T03:53:03.066Z,20.43
2019-06-20T03:53:48.970Z,20.80
2019-06-20T03:54:34.943Z,20.63
2019-06-20T03:55:20.819Z,20.73
2019-06-20T03:56:06.583Z,21.23
2019-06-20T03:56:52.419Z,20.87
2019-06-20T03:57:38.297Z,21.20
2019-06-20T03:58:24.780Z,22.47
2019-06-20T03:59:11.063Z,21.53
2019-06-20T03:59:57.248Z,21.73
2019-06-20T04:00:43.122Z,21.47
2019-06-20T04:01:29.202Z,21.97
2019-06-20T04:02:15.380Z,22.03
2019-06-20T04:03:01.759Z,22.17
2019-06-20T04:03:47.653Z,22.50
2019-06-20T04:04:34.034Z,21.40
2019-06-20T04:05:19.915Z,22.30
2019-06-20T04:06:06.004Z,23.00
2019-06-20T04:06:52.091Z,20.37
2019-06-20T04:07:38.464Z,22.40
2019-06-20T04:08:24.426Z,22.03
2019-06-20T04:09:10.985Z,23.20
2019-06-20T04:09:57.751Z,23.70
2019-06-20T04:10:44.131Z,23.73
2019-06-20T04:11:31.078Z,22.57
2019-06-20T04:12:17.351Z,22.93
2019-06-20T04:13:03.439Z,23.07
2019-06-20T04:13:49.319Z,22.90
2019-06-20T04:14:35.119Z,22.47
2019-06-20T04:15:21.552Z,23.23
2019-06-20T04:16:09.031Z,22.87
2019-06-20T04:16:55.175Z,23.93
2019-06-20T04:17:41.015Z,23.27
2019-06-20T04:18:26.887Z,21.40
2019-06-20T04:19:12.633Z,22.27
2019-06-20T04:20:01.958Z,22.53
2019-06-20T04:20:48.162Z,21.60
2019-06-20T04:21:34.059Z,24.03
2019-06-20T04:22:20.458Z,22.03
2019-06-20T04:23:06.727Z,22.53
2019-06-20T04:23:53.010Z,23.37
2019-06-20T04:24:39.272Z,22.83
2019-06-20T04:25:26.581Z,22.03
2019-06-20T04:26:14.151Z,22.93
2019-06-20T04:27:00.409Z,22.57
2019-06-20T04:27:47.858Z,20.97
2019-06-20T04:28:34.227Z,22.97
2019-06-20T04:29:20.368Z,22.87
2019-06-20T04:30:07.198Z,22.30
2019-06-20T04:30:53.106Z,22.93
2019-06-20T04:31:39.472Z,21.83
2019-06-20T04:32:25.615Z,23.83
2019-06-20T04:33:11.446Z,23.97
2019-06-20T04:33:57.439Z,23.33
2019-06-20T04:34:43.423Z,23.47
2019-06-20T04:35:29.547Z,22.80
2019-06-20T04:36:16.078Z,22.57
2019-06-20T04:37:02.620Z,25.00
2019-06-20T04:37:48.848Z,23.20
2019-06-20T04:38:35.048Z,25.13
2019-06-20T04:39:21.068Z,23.50
2019-06-20T04:40:07.715Z,23.10
2019-06-20T04:40:53.565Z,26.07
2019-06-20T04:41:39.485Z,25.40
2019-06-20T04:42:26.811Z,23.97
2019-06-20T04:43:13.077Z,24.67
2019-06-20T04:43:59.496Z,25.47
2019-06-20T04:44:45.812Z,24.73
2019-06-20T04:45:41.083Z,25.57
2019-06-20T04:46:32.900Z,23.90
2019-06-20T04:47:19.191Z,25.33
2019-06-20T04:48:05.463Z,26.23
2019-06-20T04:48:51.315Z,23.93
2019-06-20T04:49:37.743Z,26.03
2019-06-20T04:50:23.579Z,26.90
2019-06-20T04:51:09.484Z,25.80
2019-06-20T04:51:56.484Z,25.67
2019-06-20T04:52:42.850Z,25.60
2019-06-20T04:53:29.055Z,25.67
2019-06-20T04:54:16.086Z,25.27
2019-06-20T04:55:02.077Z,25.50
2019-06-20T04:55:48.175Z,26.40
2019-06-20T04:56:34.513Z,26.57
2019-06-20T04:57:20.664Z,25.73
2019-06-20T04:58:07.066Z,24.97
2019-06-20T04:58:53.435Z,23.10
2019-06-20T04:59:39.295Z,24.53
2019-06-20T05:00:25.855Z,25.50
2019-06-20T05:01:11.782Z,25.53
2019-06-20T05:01:58.125Z,24.57
2019-06-20T05:02:44.416Z,26.03
2019-06-20T05:03:30.917Z,24.90
2019-06-20T05:04:16.874Z,26.53
2019-06-20T05:05:05.147Z,24.67
2019-06-20T05:05:51.040Z,27.33
2019-06-20T05:06:37.407Z,25.53
2019-06-20T05:07:23.715Z,25.60
2019-06-20T05:08:10.679Z,24.00
2019-06-20T05:08:57.059Z,26.20
2019-06-20T05:09:43.249Z,26.13
2019-06-20T05:10:30.198Z,24.93
2019-06-20T05:11:16.458Z,26.67
2019-06-20T05:12:04.026Z,26.60
2019-06-20T05:12:50.335Z,26.30
2019-06-20T05:13:36.208Z,27.47
2019-06-20T05:14:22.444Z,25.53
2019-06-20T05:15:08.548Z,25.10
2019-06-20T05:15:55.926Z,27.33
2019-06-20T05:16:41.839Z,26.50
2019-06-20T05:17:29.359Z,27.47
2019-06-20T05:18:15.703Z,27.07
2019-06-20T05:19:03.270Z,25.13
2019-06-20T05:19:49.655Z,25.90
2019-06-20T05:20:36.017Z,24.87
2019-06-20T05:21:22.516Z,25.77
2019-06-20T05:22:08.745Z,26.70
2019-06-20T05:22:54.820Z,26.33
2019-06-20T05:23:41.422Z,26.10
2019-06-20T05:24:27.710Z,25.10
2019-06-20T05:25:13.873Z,26.53
2019-06-20T05:26:00.303Z,25.75
2019-06-20T05:26:46.811Z,25.30
2019-06-20T05:27:33.239Z,25.30
2019-06-20T05:28:20.514Z,26.03
2019-06-20T05:29:06.962Z,25.40
2019-06-20T05:29:53.279Z,25.90
2019-06-20T05:30:39.796Z,25.07
2019-06-20T05:31:25.647Z,25.83
2019-06-20T05:32:11.985Z,25.90
2019-06-20T05:32:57.739Z,25.97
2019-06-20T05:33:43.594Z,26.23
2019-06-20T05:34:29.805Z,24.93
2019-06-20T05:35:15.737Z,24.93
2019-06-20T05:36:02.092Z,24.90
2019-06-20T05:36:48.307Z,25.00
2019-06-20T05:37:34.272Z,26.50
2019-06-20T05:38:20.408Z,24.20
2019-06-20T05:39:06.809Z,25.23
2019-06-20T05:39:53.219Z,24.73
2019-06-20T05:40:40.652Z,25.57
2019-06-20T05:41:26.952Z,26.47
2019-06-20T05:42:12.925Z,26.37
2019-06-20T05:42:59.296Z,25.17
2019-06-20T05:43:46.178Z,25.50
2019-06-20T05:44:33.619Z,25.67
2019-06-20T05:45:19.962Z,24.90
2019-06-20T05:46:10.705Z,24.40
2019-06-20T05:47:08.529Z,25.30
2019-06-20T05:47:41.719Z,24.13
2019-06-20T05:48:28.168Z,24.27
2019-06-20T05:49:14.579Z,24.77
2019-06-20T05:50:00.595Z,24.23
2019-06-20T05:50:48.589Z,23.40
2019-06-20T05:51:35.003Z,23.03
2019-06-20T05:52:21.579Z,23.27
2019-06-20T05:53:09.013Z,23.47
2019-06-20T05:53:55.441Z,23.40
2019-06-20T05:54:41.363Z,23.77
2019-06-20T05:55:27.328Z,24.43
2019-06-20T05:56:13.231Z,23.67
2019-06-20T05:57:03.182Z,23.77
2019-06-20T05:57:47.324Z,24.67
2019-06-20T05:58:33.907Z,23.20
2019-06-20T05:59:19.983Z,22.70
2019-06-20T06:00:06.349Z,23.70
2019-06-20T06:00:52.476Z,24.50
2019-06-20T06:01:38.340Z,24.97
2019-06-20T06:02:24.743Z,23.77
2019-06-20T06:03:13.606Z,25.33
2019-06-20T06:03:58.516Z,23.97
2019-06-20T06:04:44.675Z,24.23
2019-06-20T06:05:30.619Z,24.13
2019-06-20T06:06:16.899Z,24.20
2019-06-20T06:07:02.804Z,22.73
2019-06-20T06:07:50.819Z,22.90
2019-06-20T06:08:36.869Z,23.03
2019-06-20T06:09:22.810Z,23.53
2019-06-20T06:10:09.683Z,23.97
2019-06-20T06:10:55.715Z,24.40
2019-06-20T06:11:42.084Z,23.40
2019-06-20T06:12:28.248Z,23.93
2019-06-20T06:13:14.156Z,23.10
2019-06-20T06:14:02.135Z,23.43
2019-06-20T06:14:49.126Z,21.93
2019-06-20T06:15:35.559Z,24.13
2019-06-20T06:16:26.984Z,23.00
2019-06-20T06:17:09.742Z,22.83
2019-06-20T06:17:56.295Z,22.27
2019-06-20T06:18:42.640Z,22.17
2019-06-20T06:19:29.038Z,23.40
2019-06-20T06:20:15.172Z,23.33
2019-06-20T06:21:01.385Z,23.90
2019-06-20T06:21:47.351Z,21.97
2019-06-20T06:22:33.714Z,22.40
2019-06-20T06:23:20.101Z,22.60
2019-06-20T06:24:06.778Z,22.50
2019-06-20T06:24:52.784Z,22.00
2019-06-20T06:25:42.372Z,21.77
2019-06-20T06:26:28.274Z,20.30
2019-06-20T06:27:14.504Z,21.33
2019-06-20T06:28:00.841Z,21.63
2019-06-20T06:28:46.954Z,21.83
2019-06-20T06:29:33.197Z,22.90
2019-06-20T06:30:21.579Z,22.83
2019-06-20T06:31:07.704Z,21.93
2019-06-20T06:31:54.199Z,22.43
2019-06-20T06:32:40.838Z,21.30
2019-06-20T06:33:27.953Z,20.80
2019-06-20T06:34:14.254Z,21.37
2019-06-20T06:35:00.500Z,23.80
2019-06-20T06:35:47.191Z,21.50
2019-06-20T06:36:34.514Z,21.10
2019-06-20T06:37:20.963Z,21.37
2019-06-20T06:38:07.405Z,20.20
2019-06-20T06:38:53.946Z,20.10
2019-06-20T06:39:43.397Z,21.20
2019-06-20T06:40:28.992Z,21.40
2019-06-20T06:41:15.347Z,21.23
2019-06-20T06:42:02.864Z,21.13
2019-06-20T06:42:49.347Z,21.70
2019-06-20T06:43:41.565Z,22.83
2019-06-20T06:44:24.369Z,22.73
2019-06-20T06:45:11.354Z,22.90
2019-06-20T06:45:57.524Z,22.00
2019-06-20T06:46:52.798Z,22.47
2019-06-20T06:47:33.387Z,22.20
2019-06-20T06:48:20.252Z,20.10
2019-06-20T06:49:06.152Z,21.43
2019-06-20T06:49:52.306Z,21.00
2019-06-20T06:50:40.014Z,21.83
2019-06-20T06:51:26.279Z,20.77
2019-06-20T06:52:12.242Z,19.80
2019-06-20T06:52:58.918Z,20.73
2019-06-20T06:53:45.281Z,19.43
2019-06-20T06:54:31.320Z,20.43
2019-06-20T06:55:18.044Z,20.60
2019-06-20T06:56:04.234Z,19.77
2019-06-20T06:56:50.119Z,19.70
2019-06-20T06:57:36.379Z,18.93
2019-06-20T06:58:22.691Z,18.90
2019-06-20T06:59:09.062Z,18.07
2019-06-20T06:59:56.550Z,17.63
2019-06-20T07:00:42.751Z,17.60
2019-06-20T07:01:29.327Z,19.03
2019-06-20T07:02:17.059Z,19.07
2019-06-20T07:03:04.124Z,19.13
2019-06-20T07:03:50.149Z,17.97
2019-06-20T07:04:37.372Z,18.03
2019-06-20T07:05:23.675Z,18.23
2019-06-20T07:06:09.835Z,16.50
2019-06-20T07:06:55.916Z,16.97
2019-06-20T07:07:41.945Z,16.93
2019-06-20T07:08:28.136Z,16.13
2019-06-20T07:09:14.006Z,15.33
2019-06-20T07:10:00.944Z,16.20
2019-06-20T07:10:47.447Z,14.73
2019-06-20T07:11:33.584Z,15.43
2019-06-20T07:12:19.519Z,14.53
2019-06-20T07:13:05.552Z,14.97
2019-06-20T07:13:51.847Z,15.47
2019-06-20T07:14:42.634Z,14.90
2019-06-20T07:15:29.695Z,13.97
2019-06-20T07:16:15.856Z,15.53
2019-06-20T07:17:01.748Z,15.97
2019-06-20T07:17:48.020Z,13.73
2019-06-20T07:18:34.402Z,14.30
2019-06-20T07:19:20.217Z,15.30
2019-06-20T07:20:07.320Z,15.40
2019-06-20T07:20:53.612Z,15.53
2019-06-20T07:21:40.119Z,15.63
2019-06-20T07:22:27.543Z,14.70
2019-06-20T07:23:14.009Z,15.10
2019-06-20T07:24:00.623Z,15.40
2019-06-20T07:24:47.148Z,15.40
2019-06-20T07:25:33.168Z,14.47
2019-06-20T07:26:19.751Z,15.50
2019-06-20T07:27:07.257Z,15.47
2019-06-20T07:27:53.612Z,15.57
2019-06-20T07:28:41.257Z,14.43
2019-06-20T07:29:27.524Z,15.30
2019-06-20T07:30:13.743Z,14.50
2019-06-20T07:30:59.970Z,14.37
2019-06-20T07:31:47.735Z,14.30
2019-06-20T07:32:34.073Z,13.43
2019-06-20T07:33:23.875Z,12.80
2019-06-20T07:34:10.273Z,13.07
2019-06-20T07:34:56.233Z,12.60
2019-06-20T07:35:42.244Z,11.87
2019-06-20T07:36:28.200Z,12.57
2019-06-20T07:37:15.427Z,11.30
2019-06-20T07:38:02.045Z,12.13
2019-06-20T07:38:48.909Z,12.43
2019-06-20T07:39:36.182Z,11.83
2019-06-20T07:40:23.032Z,11.87
2019-06-20T07:41:09.556Z,12.30
2019-06-20T07:41:55.923Z,11.87
2019-06-20T07:42:43.510Z,11.77
2019-06-20T07:43:30.128Z,11.93
2019-06-20T07:44:16.300Z,11.17
2019-06-20T07:45:04.269Z,10.40
2019-06-20T07:46:02.223Z,11.33
2019-06-20T07:46:38.712Z,13.47
2019-06-20T07:47:25.932Z,12.60
2019-06-20T07:48:12.795Z,12.07
2019-06-20T07:48:58.975Z,11.60
2019-06-20T07:49:45.179Z,12.13
2019-06-20T07:50:31.599Z,10.97
2019-06-20T07:51:17.687Z,12.00
2019-06-20T07:52:03.970Z,12.10
2019-06-20T07:53:01.489Z,12.20
2019-06-20T07:53:38.266Z,12.80
2019-06-20T07:54:25.943Z,12.20
2019-06-20T07:55:12.319Z,13.07
2019-06-20T07:55:58.789Z,12.10
2019-06-20T07:56:45.247Z,11.83
2019-06-20T07:57:34.669Z,11.30
2019-06-20T07:58:20.923Z,11.93
2019-06-20T07:59:09.943Z,11.63
2019-06-20T07:59:56.366Z,11.97
2019-06-20T08:00:42.399Z,11.13
2019-06-20T08:01:28.492Z,12.10
2019-06-20T08:02:16.009Z,10.97
2019-06-20T08:03:02.485Z,11.13
2019-06-20T08:03:48.944Z,11.10
2019-06-20T08:04:35.131Z,11.30
2019-06-20T08:05:21.891Z,11.57
2019-06-20T08:06:08.431Z,11.63
2019-06-20T08:06:54.760Z,11.30
2019-06-20T08:07:41.370Z,10.20
2019-06-20T08:08:27.928Z,11.30
2019-06-20T08:09:14.204Z,10.67
2019-06-20T08:10:01.741Z,11.70
2019-06-20T08:10:47.949Z,11.13
2019-06-20T08:11:33.745Z,10.67
2019-06-20T08:12:19.396Z,10.60
2019-06-20T08:13:05.355Z,10.87
2019-06-20T08:13:51.508Z,11.27
2019-06-20T08:14:37.929Z,10.53
2019-06-20T08:15:24.119Z,10.33
2019-06-20T08:16:10.066Z,9.33
2019-06-20T08:16:56.350Z,9.27
2019-06-20T08:17:42.806Z,10.17
2019-06-20T08:18:29.039Z,10.33
2019-06-20T08:19:14.848Z,8.93
2019-06-20T08:20:01.123Z,10.30
2019-06-20T08:20:47.432Z,10.60
2019-06-20T08:21:33.307Z,10.00
2019-06-20T08:22:20.381Z,10.00
2019-06-20T08:23:06.678Z,9.87
2019-06-20T08:23:53.235Z,10.13
2019-06-20T08:24:39.839Z,9.77
2019-06-20T08:25:26.360Z,9.07
2019-06-20T08:26:13.063Z,9.50
2019-06-20T08:27:00.425Z,9.67
2019-06-20T08:27:50.241Z,9.27
2019-06-20T08:28:36.331Z,9.57
2019-06-20T08:29:22.718Z,9.20
2019-06-20T08:30:09.252Z,9.30
2019-06-20T08:30:57.714Z,10.17
2019-06-20T08:31:45.024Z,10.70
2019-06-20T08:32:31.561Z,10.33
2019-06-20T08:33:17.379Z,10.57
2019-06-20T08:34:04.446Z,9.90
2019-06-20T08:34:50.651Z,9.83
2019-06-20T08:35:37.290Z,10.10
2019-06-20T08:36:23.648Z,10.43
2019-06-20T08:37:09.912Z,9.67
2019-06-20T08:37:57.833Z,9.13
2019-06-20T08:38:44.847Z,9.87
2019-06-20T08:39:30.857Z,10.17
2019-06-20T08:40:17.664Z,9.40
2019-06-20T08:41:04.434Z,8.40
2019-06-20T08:41:51.299Z,8.23
2019-06-20T08:42:37.408Z,10.43
2019-06-20T08:43:23.825Z,10.23
2019-06-20T08:44:10.043Z,9.47
2019-06-20T08:44:57.845Z,8.60
2019-06-20T08:45:44.807Z,9.53
2019-06-20T08:46:30.888Z,9.33
2019-06-20T08:47:16.888Z,9.27
2019-06-20T08:48:04.724Z,9.17
2019-06-20T08:48:52.355Z,8.97
2019-06-20T08:49:38.902Z,9.97
2019-06-20T08:50:25.539Z,9.90
2019-06-20T08:51:14.546Z,9.27
2019-06-20T08:52:01.211Z,9.00
2019-06-20T08:52:48.384Z,9.47
2019-06-20T08:53:34.358Z,9.77
2019-06-20T08:54:21.433Z,10.47
2019-06-20T08:55:08.076Z,10.83
2019-06-20T08:55:55.985Z,10.70
2019-06-20T08:56:43.947Z,9.57
2019-06-20T08:57:30.265Z,9.50
2019-06-20T08:58:16.119Z,9.27
2019-06-20T08:59:03.332Z,9.63
2019-06-20T08:59:49.462Z,10.77
2019-06-20T09:00:36.995Z,7.93
2019-06-20T09:01:23.614Z,8.80
2019-06-20T09:02:10.008Z,9.30
2019-06-20T09:02:58.669Z,10.40
2019-06-20T09:03:45.107Z,10.97
2019-06-20T09:04:32.704Z,11.67
2019-06-20T09:05:19.342Z,10.27
2019-06-20T09:06:05.593Z,9.90
2019-06-20T09:06:51.581Z,11.23
2019-06-20T09:07:37.897Z,9.27
2019-06-20T09:08:24.303Z,9.30
2019-06-20T09:09:10.342Z,10.17
2019-06-20T09:09:57.615Z,8.83
2019-06-20T09:10:43.891Z,10.67
2019-06-20T09:11:30.110Z,11.13
2019-06-20T09:12:16.119Z,11.90
2019-06-20T09:13:04.243Z,11.37
2019-06-20T09:13:50.633Z,10.13
2019-06-20T09:14:37.547Z,10.93
2019-06-20T09:15:24.395Z,11.20
2019-06-20T09:16:23.968Z,10.43
2019-06-20T09:16:59.406Z,10.27
2019-06-20T09:17:46.016Z,9.47
2019-06-20T09:18:32.312Z,9.37
2019-06-20T09:19:18.342Z,9.20
2019-06-20T09:20:07.274Z,9.00
2019-06-20T09:20:55.951Z,8.30
2019-06-20T09:21:41.939Z,8.83
2019-06-20T09:22:27.975Z,8.87
2019-06-20T09:23:14.359Z,9.07
2019-06-20T09:24:00.397Z,7.50
2019-06-20T09:24:46.684Z,8.70
2019-06-20T09:25:33.132Z,8.13
2019-06-20T09:26:19.261Z,8.90
2019-06-20T09:27:06.511Z,7.43
2019-06-20T09:27:54.371Z,8.50
2019-06-20T09:28:40.942Z,8.50
2019-06-20T09:29:40.863Z,7.60
2019-06-20T09:30:17.175Z,9.03
2019-06-20T09:31:05.451Z,8.70
2019-06-20T09:31:52.475Z,7.90
2019-06-20T09:32:39.202Z,7.93
2019-06-20T09:33:25.107Z,8.37
2019-06-20T09:34:11.518Z,7.53
2019-06-20T09:34:58.662Z,7.03
2019-06-20T09:35:45.323Z,7.40
2019-06-20T09:36:31.483Z,9.27
2019-06-20T09:37:18.086Z,8.03
2019-06-20T09:38:04.740Z,7.90
2019-06-20T09:38:52.454Z,6.70
2019-06-20T09:39:39.291Z,7.40
2019-06-20T09:40:26.718Z,6.97
2019-06-20T09:41:12.946Z,7.97
2019-06-20T09:41:59.291Z,7.10
2019-06-20T09:42:45.270Z,7.77
2019-06-20T09:43:31.335Z,7.30
2019-06-20T09:44:17.759Z,6.80
2019-06-20T09:45:05.615Z,6.50
2019-06-20T09:45:53.148Z,6.47
2019-06-20T09:46:40.456Z,6.93
2019-06-20T09:47:26.426Z,6.17
2019-06-20T09:48:13.148Z,6.60
2019-06-20T09:49:00.733Z,6.77
2019-06-20T09:49:50.544Z,6.40
2019-06-20T09:50:35.354Z,6.00
2019-06-20T09:51:21.428Z,6.23
2019-06-20T09:52:07.542Z,7.53
2019-06-20T09:52:54.892Z,6.50
2019-06-20T09:53:42.151Z,7.10
2019-06-20T09:54:28.244Z,6.30
2019-06-20T09:55:15.148Z,8.13
2019-06-20T09:56:01.708Z,7.53
2019-06-20T09:56:53.084Z,8.33
2019-06-20T09:57:37.880Z,7.90
2019-06-20T09:58:24.158Z,7.10
2019-06-20T09:59:26.669Z,7.07
2019-06-20T10:00:07.606Z,7.10
2019-06-20T10:00:47.593Z,7.60
2019-06-20T10:01:34.352Z,7.57
2019-06-20T10:02:20.198Z,7.57
2019-06-20T10:03:06.665Z,7.13
2019-06-20T10:03:54.747Z,7.43
2019-06-20T10:04:40.956Z,7.57
2019-06-20T10:05:29.123Z,7.83
2019-06-20T10:06:15.398Z,6.87
2019-06-20T10:07:01.732Z,7.97